.
WxDataArchive / Data Records for 2012-09-26
2012-09-25 September 2012 2012-09-27

Data Records for Wednesday, 26 September 2012

Time	Temp	Chill	HIndex	Humid	Dewpt	 Wind 	HiWind	WindDir	Rain 	Barom 
-----	----	-----	------	-----	-----	------	------	-------	-----	----- 
00:00	62.4	62.4	62.4	91	59.7	0	0	---	0.00	29.904 
00:05	62.4	62.4	62.4	91	59.7	0	0	---	0.00	29.904 
00:10	62.4	62.4	62.4	91	59.7	0	0	---	0.00	29.904 
00:15	62.4	62.4	62.4	91	59.7	0	0	---	0.00	29.904 
00:20	62.4	62.4	62.4	91	59.7	0	0	---	0.00	29.904 
00:25	62.4	62.4	62.4	91	59.7	0	0	---	0.00	29.904 
00:30	62.6	62.6	62.6	91	59.9	0	0	---	0.00	29.905 
00:35	62.4	62.4	62.4	91	59.7	0	0	---	0.00	29.905 
00:40	62.4	62.4	62.4	91	59.7	0	0	---	0.00	29.905 
00:45	62.3	62.3	62.3	91	59.6	0	1	248	0.00	29.895 
00:50	62.3	62.3	62.3	91	59.6	0	0	---	0.00	29.895 
00:55	62.1	62.1	62.1	91	59.4	0	0	---	0.00	29.895 
01:00	62.0	62.0	62.0	91	59.3	0	0	---	0.00	29.898 
01:05	61.8	61.8	61.8	91	59.1	0	0	---	0.00	29.898 
01:10	61.8	61.8	61.8	92	59.4	0	0	---	0.00	29.898 
01:15	61.6	61.6	61.6	92	59.2	0	0	---	0.00	29.893 
01:20	61.6	61.6	61.6	92	59.2	0	1	248	0.00	29.893 
01:25	61.6	61.6	61.6	92	59.2	0	1	248	0.00	29.893 
01:30	61.6	61.6	61.6	92	59.2	0	0	---	0.00	29.890 
01:35	61.5	61.5	61.5	92	59.2	0	1	248	0.00	29.890 
01:40	61.5	61.5	61.5	92	59.2	0	0	---	0.00	29.890 
01:45	61.5	61.5	61.5	92	59.2	0	1	248	0.00	29.887 
01:50	61.5	61.5	61.5	92	59.2	0	0	---	0.00	29.887 
01:55	61.3	61.3	61.3	92	59.0	0	0	---	0.00	29.887 
02:00	61.3	61.3	61.3	92	59.0	0	1	248	0.00	29.891 
02:05	61.2	61.2	61.2	92	58.9	0	0	---	0.00	29.891 
02:10	61.2	61.2	61.2	93	59.2	0	0	---	0.00	29.891 
02:15	61.2	61.2	61.2	93	59.2	0	0	---	0.00	29.904 
02:20	61.2	61.2	61.2	93	59.2	0	0	---	0.00	29.904 
02:25	61.2	61.2	61.2	93	59.2	0	1	248	0.00	29.904 
02:30	61.3	61.3	61.3	93	59.3	0	1	248	0.00	29.904 
02:35	61.3	61.3	61.3	93	59.3	0	0	---	0.00	29.904 
02:40	61.3	61.3	61.3	93	59.3	0	1	248	0.00	29.904 
02:45	61.5	61.5	61.5	93	59.5	0	0	---	0.00	29.902 
02:50	61.5	61.5	61.5	93	59.5	0	0	---	0.00	29.902 
02:55	61.5	61.5	61.5	93	59.5	0	0	---	0.00	29.902 
03:00	61.5	61.5	61.5	93	59.5	0	0	---	0.00	29.898 
03:05	61.6	61.6	61.6	93	59.6	0	0	---	0.00	29.898 
03:10	61.6	61.6	61.6	93	59.6	0	0	---	0.00	29.898 
03:15	61.6	61.6	61.6	93	59.6	0	0	---	0.00	29.896 
03:20	61.6	61.6	61.6	93	59.6	0	0	---	0.00	29.896 
03:25	61.8	61.8	61.8	94	60.1	0	1	248	0.00	29.896 
03:30	62.0	62.0	62.0	94	60.2	0	0	---	0.00	29.891 
03:35	62.0	62.0	62.0	94	60.2	0	1	248	0.00	29.891 
03:40	62.1	62.1	62.1	94	60.3	0	1	248	0.00	29.891 
03:45	62.4	62.4	62.4	94	60.6	0	2	248	0.00	29.894 
03:50	62.7	62.7	62.7	94	60.9	0	2	248	0.00	29.894 
03:55	63.1	63.1	63.1	94	61.3	0	2	248	0.00	29.894 
04:00	63.4	63.4	63.4	94	61.6	0	3	292	0.00	29.890 
04:05	63.5	63.5	63.5	93	61.4	0	2	292	0.00	29.890 
04:10	63.7	63.7	63.7	93	61.6	1	2	292	0.00	29.890 
04:15	64.0	64.0	64.0	93	61.9	1	5	292	0.01	29.878 
04:20	64.3	64.3	64.3	93	62.2	1	3	270	0.01	29.878 
04:25	64.5	64.5	64.5	93	62.4	0	1	270	0.00	29.878 
04:30	64.7	64.7	64.7	93	62.6	0	1	270	0.00	29.872 
04:35	64.7	64.7	64.7	93	62.6	0	1	270	0.00	29.872 
04:40	64.7	64.7	64.7	93	62.6	0	2	270	0.00	29.872 
04:45	64.7	64.7	64.7	93	62.6	0	2	270	0.00	29.873 
04:50	64.5	64.5	64.5	93	62.4	0	1	270	0.00	29.873 
04:55	64.5	64.5	64.5	93	62.4	0	2	270	0.00	29.873 
05:00	64.3	64.3	64.3	93	62.2	0	2	270	0.00	29.883 
05:05	64.2	64.2	64.2	93	62.1	0	0	---	0.00	29.883 
05:10	64.2	64.2	64.2	93	62.1	0	1	270	0.00	29.883 
05:15	64.0	64.0	64.0	93	61.9	0	1	270	0.00	29.880 
05:20	64.0	64.0	64.0	94	62.2	0	1	270	0.00	29.880 
05:25	63.9	63.9	63.9	94	62.1	0	1	270	0.00	29.880 
05:30	63.9	63.9	63.9	94	62.1	0	1	270	0.00	29.878 
05:35	63.9	63.9	63.9	94	62.1	0	2	270	0.00	29.878 
05:40	63.7	63.7	63.7	94	61.9	0	2	270	0.00	29.878 
05:45	63.5	63.5	63.5	94	61.7	0	0	---	0.00	29.878 
05:50	63.5	63.5	63.5	94	61.7	0	1	270	0.00	29.878 
05:55	63.4	63.4	63.4	94	61.6	0	1	270	0.00	29.878 
06:00	63.4	63.4	63.4	94	61.6	0	2	270	0.00	29.879 
06:05	63.4	63.4	63.4	94	61.6	0	1	270	0.00	29.879 
06:10	63.2	63.2	63.2	94	61.4	0	1	270	0.00	29.879 
06:15	63.2	63.2	63.2	94	61.4	0	2	270	0.00	29.885 
06:20	63.2	63.2	63.2	94	61.4	0	1	270	0.00	29.885 
06:25	63.1	63.1	63.1	94	61.3	0	2	270	0.00	29.885 
06:30	63.1	63.1	63.1	94	61.3	0	2	270	0.00	29.886 
06:35	63.1	63.1	63.1	94	61.3	0	2	270	0.00	29.886 
06:40	63.1	63.1	63.1	94	61.3	0	2	270	0.00	29.886 
06:45	62.9	62.9	62.9	94	61.1	0	2	270	0.00	29.898 
06:50	62.9	62.9	62.9	94	61.1	0	2	270	0.00	29.898 
06:55	62.9	62.9	62.9	94	61.1	0	2	270	0.00	29.898 
07:00	62.9	62.9	62.9	93	60.8	0	2	270	0.00	29.903 
07:05	62.9	62.9	62.9	93	60.8	0	1	270	0.00	29.903 
07:10	62.9	62.9	62.9	93	60.8	0	3	270	0.00	29.903 
07:15	62.9	62.9	62.9	93	60.8	0	2	270	0.00	29.907 
07:20	62.9	62.9	62.9	93	60.8	0	1	270	0.00	29.907 
07:25	62.9	62.9	62.9	93	60.8	0	2	270	0.00	29.907 
07:30	62.9	62.9	62.9	93	60.8	0	3	270	0.00	29.913 
07:35	63.1	63.1	63.1	93	61.0	0	1	270	0.00	29.913 
07:40	63.1	63.1	63.1	92	60.7	0	3	270	0.00	29.913 
07:45	63.1	63.1	63.1	92	60.7	0	2	270	0.00	29.919 
07:50	63.1	63.1	63.1	92	60.7	0	3	248	0.00	29.919 
07:55	63.1	63.1	63.1	92	60.7	0	1	248	0.00	29.919 
08:00	63.1	63.1	63.1	92	60.7	0	1	248	0.00	29.922 
08:05	63.1	63.1	63.1	92	60.7	0	1	248	0.00	29.922 
08:10	63.1	63.1	63.1	92	60.7	0	2	248	0.00	29.922 
08:15	63.1	63.1	63.1	92	60.7	0	3	248	0.00	29.925 
08:20	63.1	63.1	63.1	92	60.7	0	1	248	0.00	29.925 
08:25	62.9	62.9	62.9	92	60.5	0	1	248	0.00	29.925 
08:30	62.9	62.9	62.9	92	60.5	0	2	248	0.00	29.932 
08:35	62.9	62.9	62.9	92	60.5	0	2	270	0.00	29.932 
08:40	62.9	62.9	62.9	92	60.5	0	2	270	0.00	29.932 
08:45	62.9	62.9	62.9	92	60.5	0	2	270	0.00	29.943 
08:50	62.9	62.9	62.9	92	60.5	0	2	270	0.00	29.943 
08:55	62.9	62.9	62.9	92	60.5	0	1	270	0.00	29.943 
09:00	62.9	62.9	62.9	92	60.5	0	2	270	0.00	29.936 
09:05	63.1	63.1	63.1	92	60.7	0	2	270	0.00	29.936 
09:10	63.1	63.1	63.1	92	60.7	0	2	270	0.00	29.936 
09:15	63.1	63.1	63.1	92	60.7	0	1	270	0.00	29.939 
09:20	63.2	63.2	63.2	92	60.8	0	2	270	0.00	29.939 
09:25	63.2	63.2	63.2	92	60.8	0	1	270	0.00	29.939 
09:30	63.4	63.4	63.4	92	61.0	0	1	270	0.00	29.949 
09:35	63.5	63.5	63.5	92	61.1	0	1	270	0.00	29.949 
09:40	63.7	63.7	63.7	92	61.3	0	2	270	0.00	29.949 
09:45	63.7	63.7	63.7	92	61.3	0	2	270	0.00	29.949 
09:50	63.9	63.9	63.9	91	61.2	0	2	270	0.00	29.949 
09:55	63.9	63.9	63.9	91	61.2	0	1	270	0.00	29.949 
10:00	63.9	63.9	63.9	91	61.2	0	2	270	0.00	29.951 
10:05	64.0	64.0	64.0	91	61.3	0	1	270	0.00	29.951 
10:10	64.0	64.0	64.0	91	61.3	0	2	270	0.00	29.951 
10:15	64.0	64.0	64.0	91	61.3	0	2	270	0.00	29.961 
10:20	64.2	64.2	64.2	91	61.5	0	1	270	0.00	29.961 
10:25	64.2	64.2	64.2	91	61.5	0	2	270	0.00	29.961 
10:30	64.2	64.2	64.2	91	61.5	0	2	270	0.00	29.955 
10:35	64.3	64.3	64.3	91	61.6	0	1	270	0.00	29.955 
10:40	64.5	64.5	64.5	91	61.8	0	2	270	0.00	29.955 
10:45	64.5	64.5	64.5	90	61.5	1	3	270	0.00	29.965 
10:50	64.5	64.5	64.5	90	61.5	1	4	225	0.00	29.965 
10:55	64.7	64.7	64.7	90	61.7	0	3	225	0.00	29.965 
11:00	64.5	64.5	64.5	90	61.5	1	5	270	0.00	29.973 
11:05	64.3	64.3	64.3	90	61.3	1	3	270	0.00	29.973 
11:10	64.3	64.3	64.3	90	61.3	0	2	270	0.00	29.973 
11:15	64.3	64.3	64.3	90	61.3	0	2	270	0.00	29.978 
11:20	64.3	64.3	64.3	90	61.3	0	2	270	0.00	29.978 
11:25	64.2	64.2	64.2	90	61.2	0	2	270	0.00	29.978 
11:30	64.2	64.2	64.2	90	61.2	0	2	270	0.00	29.981 
11:35	64.2	64.2	64.2	91	61.5	1	3	270	0.00	29.981 
11:40	64.2	64.2	64.2	91	61.5	0	2	270	0.00	29.981 
11:45	64.3	64.3	64.3	91	61.6	0	2	270	0.00	29.987 
11:50	64.3	64.3	64.3	91	61.6	0	2	270	0.00	29.987 
11:55	64.5	64.5	64.5	91	61.8	0	4	270	0.00	29.987 
12:00	64.7	64.7	64.7	92	62.3	0	2	270	0.00	29.984 
12:05	65.0	65.0	65.0	92	62.6	1	2	270	0.00	29.984 
12:10	65.3	65.3	65.3	91	62.6	1	3	270	0.00	29.984 
12:15	65.6	65.6	65.6	91	62.9	0	2	270	0.00	29.984 
12:20	65.8	65.8	65.8	90	62.8	1	2	270	0.00	29.984 
12:25	66.0	66.0	66.0	90	63.0	1	3	248	0.00	29.984 
12:30	66.1	66.1	66.1	89	62.8	1	3	248	0.00	29.983 
12:35	66.3	66.3	66.3	88	62.6	0	2	248	0.00	29.983 
12:40	66.4	66.4	66.4	88	62.7	0	2	248	0.00	29.983 
12:45	66.3	66.3	66.3	87	62.3	1	3	248	0.00	29.985 
12:50	66.3	66.3	66.3	87	62.3	1	3	248	0.00	29.985 
12:55	66.4	66.4	66.4	87	62.4	1	3	248	0.00	29.985 
13:00	66.4	66.4	66.4	87	62.4	0	2	248	0.00	29.990 
13:05	66.6	66.6	66.6	86	62.3	1	4	248	0.00	29.990 
13:10	66.8	66.8	66.8	86	62.5	0	2	248	0.00	29.990 
13:15	67.1	67.1	67.1	85	62.4	1	2	248	0.00	29.991 
13:20	67.1	67.1	67.1	84	62.1	1	3	248	0.00	29.991 
13:25	67.3	67.3	67.3	84	62.3	0	1	248	0.00	29.991 
13:30	67.4	67.4	67.4	84	62.4	1	3	248	0.00	29.995 
13:35	67.6	67.6	67.6	84	62.6	0	2	248	0.00	29.995 
13:40	67.8	67.8	67.8	83	62.4	1	2	248	0.00	29.995 
13:45	67.9	67.9	67.9	83	62.5	0	1	248	0.00	29.995 
13:50	67.9	67.9	67.9	83	62.5	1	2	248	0.00	29.995 
13:55	68.1	68.1	68.1	82	62.4	0	4	248	0.00	29.995 
14:00	68.3	68.3	68.3	82	62.6	1	3	248	0.00	29.995 
14:05	68.4	68.4	68.4	81	62.3	0	2	248	0.00	29.995 
14:10	68.6	68.6	68.6	81	62.5	1	2	248	0.00	29.995 
14:15	69.1	69.1	69.1	81	63.0	1	3	248	0.00	29.988 
14:20	69.3	69.3	69.3	80	62.9	1	4	248	0.00	29.988 
14:25	69.4	69.4	69.4	79	62.6	0	2	248	0.00	29.988 
14:30	69.9	69.9	69.9	79	63.1	0	2	248	0.00	29.986 
14:35	70.1	70.1	70.1	78	62.9	0	4	248	0.00	29.986 
14:40	70.8	70.8	70.8	78	63.6	0	1	248	0.00	29.986 
14:45	70.9	70.9	70.9	76	62.9	1	2	248	0.00	29.990 
14:50	71.1	71.1	71.1	76	63.1	1	2	248	0.00	29.990 
14:55	71.1	71.1	71.1	76	63.1	1	4	248	0.00	29.990 
15:00	71.1	71.1	71.1	76	63.1	1	4	292	0.00	29.995 
15:05	70.9	70.9	70.9	75	62.6	1	5	225	0.00	29.995 
15:10	70.9	70.9	70.9	76	62.9	1	2	225	0.00	29.995 
15:15	70.9	70.9	70.9	76	62.9	0	3	225	0.00	29.992 
15:20	70.9	70.9	70.9	77	63.3	0	2	225	0.00	29.992 
15:25	70.9	70.9	70.9	75	62.6	1	3	225	0.00	29.992 
15:30	70.9	70.9	70.9	75	62.6	1	4	315	0.00	29.991 
15:35	70.9	70.9	70.9	76	62.9	0	4	248	0.00	29.991 
15:40	70.9	70.9	70.9	75	62.6	0	2	248	0.00	29.991 
15:45	70.9	70.9	70.9	76	62.9	0	2	248	0.00	29.989 
15:50	70.8	70.8	70.8	76	62.8	0	2	315	0.00	29.989 
15:55	70.6	70.6	70.6	77	63.0	0	2	315	0.00	29.989 
16:00	70.4	70.4	70.4	76	62.5	0	2	315	0.00	29.983 
16:05	70.3	70.3	70.3	77	62.7	0	2	315	0.00	29.983 
16:10	70.3	70.3	70.3	77	62.7	0	1	315	0.00	29.983 
16:15	70.3	70.3	70.3	77	62.7	0	2	315	0.00	29.976 
16:20	70.3	70.3	70.3	77	62.7	1	2	315	0.00	29.976 
16:25	70.3	70.3	70.3	77	62.7	1	2	315	0.00	29.976 
16:30	70.3	70.3	70.3	77	62.7	0	3	315	0.00	29.975 
16:35	70.3	70.3	70.3	77	62.7	0	2	315	0.00	29.975 
16:40	70.3	70.3	70.3	77	62.7	0	2	315	0.00	29.975 
16:45	70.3	70.3	70.3	77	62.7	0	1	315	0.00	29.970 
16:50	70.1	70.1	70.1	77	62.5	0	1	315	0.00	29.970 
16:55	70.1	70.1	70.1	78	62.9	0	1	315	0.00	29.970 
17:00	70.1	70.1	70.1	77	62.5	0	2	315	0.00	29.965 
17:05	70.1	70.1	70.1	78	62.9	0	1	315	0.00	29.965 
17:10	69.9	69.9	69.9	77	62.3	0	2	315	0.00	29.965 
17:15	69.9	69.9	69.9	78	62.7	0	1	315	0.00	29.970 
17:20	69.8	69.8	69.8	78	62.6	0	1	315	0.00	29.970 
17:25	69.6	69.6	69.6	79	62.8	0	0	---	0.00	29.970 
17:30	69.6	69.6	69.6	79	62.8	0	1	315	0.00	29.976 
17:35	69.6	69.6	69.6	79	62.8	0	0	---	0.00	29.976 
17:40	69.6	69.6	69.6	80	63.1	0	1	315	0.00	29.976 
17:45	69.4	69.4	69.4	80	63.0	0	1	315	0.00	29.982 
17:50	69.3	69.3	69.3	81	63.2	0	2	315	0.00	29.982 
17:55	69.1	69.1	69.1	81	63.0	0	1	315	0.00	29.982 
18:00	68.9	68.9	68.9	82	63.2	0	1	315	0.00	29.986 
18:05	68.8	68.8	68.8	82	63.1	0	1	315	0.00	29.986 
18:10	68.6	68.6	68.6	82	62.9	0	1	315	0.00	29.986 
18:15	68.4	68.4	68.4	83	63.0	0	1	315	0.00	29.992 
18:20	68.4	68.4	68.4	83	63.0	0	0	---	0.00	29.992 
18:25	68.4	68.4	68.4	83	63.0	0	1	315	0.00	29.992 
18:30	68.4	68.4	68.4	83	63.0	0	1	315	0.00	29.996 
18:35	68.3	68.3	68.3	84	63.3	0	1	315	0.00	29.996 
18:40	68.3	68.3	68.3	84	63.3	0	1	315	0.00	29.996 
18:45	68.1	68.1	68.1	84	63.1	0	1	315	0.00	30.008 
18:50	67.9	67.9	67.9	85	63.2	0	2	315	0.00	30.008 
18:55	67.8	67.8	67.8	85	63.1	0	1	315	0.00	30.008 
19:00	67.6	67.6	67.6	85	62.9	0	1	315	0.00	30.014 
19:05	67.4	67.4	67.4	85	62.7	0	1	315	0.00	30.014 
19:10	67.4	67.4	67.4	86	63.1	0	2	315	0.00	30.014 
19:15	67.3	67.3	67.3	86	63.0	0	1	315	0.00	30.024 
19:20	67.3	67.3	67.3	86	63.0	0	1	315	0.00	30.024 
19:25	67.1	67.1	67.1	87	63.1	0	1	315	0.00	30.024 
19:30	67.1	67.1	67.1	87	63.1	0	1	315	0.00	30.026 
19:35	66.9	66.9	66.9	87	62.9	0	1	315	0.00	30.026 
19:40	66.8	66.8	66.8	87	62.8	0	1	315	0.00	30.026 
19:45	66.6	66.6	66.6	87	62.6	0	1	315	0.00	30.027 
19:50	66.4	66.4	66.4	88	62.7	0	1	315	0.00	30.027 
19:55	66.4	66.4	66.4	88	62.7	0	1	315	0.00	30.027 
20:00	66.3	66.3	66.3	88	62.6	0	0	---	0.00	30.035 
20:05	66.3	66.3	66.3	88	62.6	0	0	---	0.00	30.035 
20:10	66.3	66.3	66.3	88	62.6	0	1	315	0.00	30.035 
20:15	66.3	66.3	66.3	88	62.6	0	1	315	0.00	30.042 
20:20	66.1	66.1	66.1	89	62.8	0	0	---	0.00	30.042 
20:25	66.1	66.1	66.1	89	62.8	0	0	---	0.00	30.042 
20:30	66.0	66.0	66.0	89	62.7	0	0	---	0.00	30.047 
20:35	65.8	65.8	65.8	89	62.5	0	1	315	0.00	30.047 
20:40	65.6	65.6	65.6	89	62.3	0	1	315	0.00	30.047 
20:45	65.5	65.5	65.5	89	62.2	0	0	---	0.00	30.054 
20:50	65.3	65.3	65.3	89	62.0	0	0	---	0.00	30.054 
20:55	65.3	65.3	65.3	90	62.3	0	0	---	0.00	30.054 
21:00	65.2	65.2	65.2	90	62.2	0	0	---	0.00	30.057 
21:05	65.0	65.0	65.0	90	62.0	0	0	---	0.00	30.057 
21:10	64.7	64.7	64.7	90	61.7	0	0	---	0.00	30.057 
21:15	64.5	64.5	64.5	90	61.5	0	0	---	0.00	30.057 
21:20	64.3	64.3	64.3	91	61.6	0	0	---	0.00	30.057 
21:25	64.2	64.2	64.2	91	61.5	0	0	---	0.00	30.057 
21:30	64.0	64.0	64.0	91	61.3	0	0	---	0.00	30.059 
21:35	63.9	63.9	63.9	91	61.2	0	0	---	0.00	30.059 
21:40	63.9	63.9	63.9	92	61.5	0	0	---	0.00	30.059 
21:45	64.0	64.0	64.0	92	61.6	0	0	---	0.00	30.061 
21:50	64.2	64.2	64.2	92	61.8	0	0	---	0.00	30.061 
21:55	64.2	64.2	64.2	92	61.8	0	0	---	0.00	30.061 
22:00	64.2	64.2	64.2	92	61.8	0	0	---	0.00	30.059 
22:05	64.0	64.0	64.0	92	61.6	0	0	---	0.00	30.059 
22:10	63.9	63.9	63.9	92	61.5	0	0	---	0.00	30.059 
22:15	63.7	63.7	63.7	92	61.3	0	0	---	0.00	30.062 
22:20	63.4	63.4	63.4	92	61.0	0	0	---	0.00	30.062 
22:25	63.1	63.1	63.1	92	60.7	0	0	---	0.00	30.062 
22:30	62.7	62.7	62.7	93	60.6	0	0	---	0.00	30.059 
22:35	62.6	62.6	62.6	93	60.5	0	0	---	0.00	30.059 
22:40	62.4	62.4	62.4	93	60.3	0	0	---	0.00	30.059 
22:45	62.1	62.1	62.1	93	60.0	0	0	---	0.00	30.070 
22:50	62.0	62.0	62.0	93	59.9	0	0	---	0.00	30.070 
22:55	61.8	61.8	61.8	93	59.8	0	0	---	0.00	30.070 
23:00	61.5	61.5	61.5	93	59.5	0	0	---	0.00	30.076 
23:05	61.3	61.3	61.3	93	59.3	0	0	---	0.00	30.076 
23:10	61.2	61.2	61.2	93	59.2	0	0	---	0.00	30.076 
23:15	60.9	60.9	60.9	93	58.9	0	0	---	0.00	30.078 
23:20	60.7	60.7	60.7	93	58.7	0	0	---	0.00	30.078 
23:25	60.4	60.4	60.4	93	58.4	0	0	---	0.00	30.078 
23:30	60.2	60.2	60.2	93	58.2	0	0	---	0.00	30.078 
23:35	60.1	60.1	60.1	93	58.1	0	0	---	0.00	30.078 
23:40	59.9	59.9	59.9	93	57.9	0	0	---	0.00	30.078 
23:45	59.9	59.9	59.9	93	57.9	0	0	---	0.00	30.085 
23:50	59.9	59.9	59.9	93	57.9	0	0	---	0.00	30.085 
23:55	59.8	59.8	59.8	94	58.1	0	0	---	0.00	30.085 

CoCoRaHS
IN-AL-39
A2 Web Hosting
Creative Commons License
GoDaddy
search engine by freefind advanced

loaded 2018-11-19 18:42:53 • last modified 2010-11-18 10:43:29
Privacy PolicyDisclaimer
• wx.awcolley.com is powered by PmWiki v.2002016 •
• all content (unless otherwise noted) © 2018 A W Colley